G. O. Sars — LMEL — position and weather

sailwx.info

Track history (hours):
 
Tides and Currents Weather Stations Pressure Air Temp Water Temp Dewpoint Dewpoint Depression Visibility Wind Speed Wind Dir Waves Ship Positions

Oceanographic research ship G. O. Sars (Norway)

Detailed information on ship capabilities available from University of Delaware's Ocean Information Center and ARCUS's ALIAS (Arctic Logistics Information and Support) project.

Last reported at 2017-May-24 22:45 UTC. Time now 2017-May-25 18:10 UTC.
Position N 69°44' E 015°51'.

Type: Other ship. MMSI: 257105000.

Date/timePositionNaut miles runAvg speedWind from/ knotsBaromVisibWave heightAir tempDewpointWater temp
2017-May-24 22:45N 69°44' E 015°51'2 9.3
2017-May-24 22:29N 69°44' E 015°58'5 9.4
2017-May-24 22:00N 69°43' E 016°11'5 9.0
2017-May-24 21:30N 69°42' E 016°25'5 9.4
2017-May-24 21:00N 69°42' E 016°38'5 9.9
2017-May-24 20:30N 69°41' E 016°53'5 9.8
2017-May-24 20:00N 69°41' E 017°06'5 9.4
2017-May-24 19:30N 69°40' E 017°20'5 9.4
2017-May-24 19:00N 69°40' E 017°33'4 8.9
2017-May-24 18:30N 69°39' E 017°46'510.0
2017-May-24 17:59N 69°35' E 017°55'510.2
2017-May-24 17:30N 69°32' E 018°05'5 9.6
2017-May-24 17:00N 69°31' E 018°18'5 9.6
2017-May-24 16:30N 69°32' E 018°31'510.5
2017-May-24 16:00N 69°34' E 018°46'510.3
2017-May-24 15:30N 69°37' E 018°56'4 7.1
2017-May-24 15:00N 69°41' E 018°60'0 0.2
2017-May-24 14:29N 69°41' E 018°60'0 0.0
2017-May-24 13:29N 69°41' E 018°60'0 0.0
2017-May-24 12:59N 69°41' E 018°60'0 0.0
2017-May-24 12:29N 69°41' E 018°60'0 0.0
2017-May-24 11:59N 69°41' E 018°60'0 0.0
2017-May-24 11:29N 69°41' E 018°60'0 0.0
2017-May-24 10:59N 69°41' E 018°60'0 0.0
2017-May-24 10:29N 69°41' E 018°60'0 0.0
2017-May-24 09:59N 69°41' E 018°60'0 0.0
2017-May-24 09:29N 69°41' E 018°60'0 0.0
2017-May-24 08:59N 69°41' E 018°60'0 0.0
2017-May-24 08:29N 69°41' E 018°60'0 0.0
2017-May-24 07:59N 69°41' E 018°60'0 0.0
2017-May-24 07:29N 69°41' E 018°60'0 0.0
2017-May-24 06:59N 69°41' E 018°60'0 0.0
2017-May-24 06:29N 69°41' E 018°60'0 0.0
2017-May-24 05:59N 69°41' E 018°60'0 0.0
2017-May-24 05:29N 69°41' E 018°60'0 0.0
2017-May-24 04:59N 69°41' E 018°60'0 0.0
2017-May-24 04:29N 69°41' E 018°60'0 0.0
2017-May-24 03:59N 69°41' E 018°60'0 0.0
2017-May-24 03:29N 69°41' E 018°60'0 0.0
2017-May-24 02:59N 69°41' E 018°60'0 0.0
2017-May-24 02:29N 69°41' E 018°60'0 0.0
2017-May-24 01:59N 69°41' E 018°60'0 0.0
2017-May-24 01:28N 69°41' E 018°60'0 0.0
2017-May-24 00:58N 69°41' E 018°60'0 0.0
2017-May-24 00:28N 69°41' E 018°60'0 0.0
2017-May-23 23:58N 69°41' E 018°60'0 0.0
2017-May-23 23:28N 69°41' E 018°60'0 0.0
2017-May-23 22:58N 69°41' E 018°60'0 0.0
2017-May-23 22:28N 69°41' E 018°60'0 0.0
2017-May-23 21:58N 69°41' E 018°60'0 0.0
2017-May-23 21:28N 69°41' E 018°60'0 0.0
2017-May-23 20:58N 69°41' E 018°60'0 0.0
2017-May-23 20:28N 69°41' E 018°60'0 0.0
2017-May-23 19:58N 69°41' E 018°60'0 0.0
2017-May-23 19:28N 69°41' E 018°60'0 0.0
2017-May-23 18:58N 69°41' E 018°60'0 0.0
2017-May-23 18:28N 69°41' E 018°60'0 0.0
2017-May-23 17:58N 69°41' E 018°60'0 0.0
2017-May-23 17:28N 69°41' E 018°60'0 0.0
2017-May-23 16:58N 69°41' E 018°60'0 0.0
2017-May-23 16:28N 69°41' E 018°60'0 0.0
2017-May-23 15:58N 69°41' E 018°60'0 0.0
2017-May-23 15:28N 69°41' E 018°60'0 0.0
2017-May-23 14:58N 69°41' E 018°60'0 0.0
2017-May-23 14:28N 69°41' E 018°60'0 0.0
2017-May-23 13:28N 69°41' E 018°60'0 0.0
2017-May-23 12:58N 69°41' E 018°60'0 0.0
2017-May-23 12:28N 69°41' E 018°60'0 0.0
2017-May-23 11:58N 69°41' E 018°60'0 0.0
2017-May-23 11:28N 69°41' E 018°60'0 0.0
2017-May-23 10:58N 69°41' E 018°60'0 0.0
2017-May-23 10:28N 69°41' E 018°60'0 0.0
2017-May-23 09:58N 69°41' E 018°60'0 0.7
2017-May-23 09:30N 69°41' E 019°01'3 5.3
2017-May-23 09:01N 69°43' E 019°03'4 7.9
2017-May-23 08:30N 69°47' E 019°03'611.7
2017-May-23 08:00N 69°52' E 018°52'611.6
2017-May-23 07:30N 69°55' E 018°38'611.0
2017-May-23 07:00N 69°56' E 018°22'510.7
2017-May-23 06:30N 69°57' E 018°07'510.6
2017-May-23 06:00N 69°56' E 017°52'4 7.8
2017-May-23 05:30N 69°55' E 017°41'4 8.9
2017-May-23 05:00N 69°55' E 017°28'1 2.2
2017-May-23 04:30N 69°55' E 017°25'510.0
2017-May-23 04:00N 69°55' E 017°11'510.2
2017-May-23 03:30N 69°55' E 016°55'63 2.8
2017-May-22 04:58N 69°22' E 014°20'4 9.0
2017-May-22 04:30N 69°20' E 014°31'5 9.2
2017-May-22 04:00N 69°18' E 014°42'5 9.9
2017-May-22 03:30N 69°15' E 014°54'5 9.5
2017-May-22 03:00N 69°13' E 015°06'5 9.2
2017-May-22 02:30N 69°12' E 014°53'611.0
2017-May-22 01:59N 69°12' E 014°37'3 5.5
2017-May-22 01:30N 69°13' E 014°29'1 2.8
2017-May-22 01:00N 69°13' E 014°33'1 3.0
2017-May-22 00:31N 69°12' E 014°37'3 6.2
2017-May-22 00:00N 69°12' E 014°28'5 9.8
2017-May-21 23:30N 69°12' E 014°14'  
2017-May-18 04:46N 68°30' E 012°43'2 9.0
2017-May-18 04:30N 68°30' E 012°50'4 8.9
2017-May-18 04:00N 68°30' E 013°02'4 9.0
2017-May-18 03:30N 68°30' E 013°14'4 7.4
2017-May-18 03:00N 68°29' E 013°24'611.4
2017-May-18 02:30N 68°25' E 013°16'610.9
2017-May-18 01:59N 68°20' E 013°07'510.7
2017-May-18 01:30N 68°16' E 012°59'510.7
2017-May-18 01:00N 68°11' E 012°51'510.8
2017-May-18 00:30N 68°07' E 012°44'510.9
2017-May-18 00:00N 68°02' E 012°35'510.9
2017-May-17 23:30N 67°58' E 012°27'510.7
2017-May-17 23:00N 67°53' E 012°19'  
Track history (hours):
 
Tides and Currents Weather Stations Pressure Air Temp Water Temp Dewpoint Dewpoint Depression Visibility Wind Speed Wind Dir Waves Ship Positions

Oceanographic research ship G. O. Sars (Norway)

Detailed information on ship capabilities available from University of Delaware's Ocean Information Center and ARCUS's ALIAS (Arctic Logistics Information and Support) project.

Last reported at 2017-May-24 22:45 UTC. Time now 2017-May-25 18:10 UTC.
Position N 69°44' E 015°51'.

Type: Other ship. MMSI: 257105000.

Date/timePositionNaut miles runAvg speedWind from/ knotsBaromVisibWave heightAir tempDewpointWater temp
2017-May-24 22:45N 69°44' E 015°51'2 9.3
2017-May-24 22:29N 69°44' E 015°58'5 9.4
2017-May-24 22:00N 69°43' E 016°11'5 9.0
2017-May-24 21:30N 69°42' E 016°25'5 9.4
2017-May-24 21:00N 69°42' E 016°38'5 9.9
2017-May-24 20:30N 69°41' E 016°53'5 9.8
2017-May-24 20:00N 69°41' E 017°06'5 9.4
2017-May-24 19:30N 69°40' E 017°20'5 9.4
2017-May-24 19:00N 69°40' E 017°33'4 8.9
2017-May-24 18:30N 69°39' E 017°46'510.0
2017-May-24 17:59N 69°35' E 017°55'510.2
2017-May-24 17:30N 69°32' E 018°05'5 9.6
2017-May-24 17:00N 69°31' E 018°18'5 9.6
2017-May-24 16:30N 69°32' E 018°31'510.5
2017-May-24 16:00N 69°34' E 018°46'510.3
2017-May-24 15:30N 69°37' E 018°56'4 7.1
2017-May-24 15:00N 69°41' E 018°60'0 0.2
2017-May-24 14:29N 69°41' E 018°60'0 0.0
2017-May-24 13:29N 69°41' E 018°60'0 0.0
2017-May-24 12:59N 69°41' E 018°60'0 0.0
2017-May-24 12:29N 69°41' E 018°60'0 0.0
2017-May-24 11:59N 69°41' E 018°60'0 0.0
2017-May-24 11:29N 69°41' E 018°60'0 0.0
2017-May-24 10:59N 69°41' E 018°60'0 0.0
2017-May-24 10:29N 69°41' E 018°60'0 0.0
2017-May-24 09:59N 69°41' E 018°60'0 0.0
2017-May-24 09:29N 69°41' E 018°60'0 0.0
2017-May-24 08:59N 69°41' E 018°60'0 0.0
2017-May-24 08:29N 69°41' E 018°60'0 0.0
2017-May-24 07:59N 69°41' E 018°60'0 0.0
2017-May-24 07:29N 69°41' E 018°60'0 0.0
2017-May-24 06:59N 69°41' E 018°60'0 0.0
2017-May-24 06:29N 69°41' E 018°60'0 0.0
2017-May-24 05:59N 69°41' E 018°60'0 0.0
2017-May-24 05:29N 69°41' E 018°60'0 0.0
2017-May-24 04:59N 69°41' E 018°60'0 0.0
2017-May-24 04:29N 69°41' E 018°60'0 0.0
2017-May-24 03:59N 69°41' E 018°60'0 0.0
2017-May-24 03:29N 69°41' E 018°60'0 0.0
2017-May-24 02:59N 69°41' E 018°60'0 0.0
2017-May-24 02:29N 69°41' E 018°60'0 0.0
2017-May-24 01:59N 69°41' E 018°60'0 0.0
2017-May-24 01:28N 69°41' E 018°60'0 0.0
2017-May-24 00:58N 69°41' E 018°60'0 0.0
2017-May-24 00:28N 69°41' E 018°60'0 0.0
2017-May-23 23:58N 69°41' E 018°60'0 0.0
2017-May-23 23:28N 69°41' E 018°60'0 0.0
2017-May-23 22:58N 69°41' E 018°60'0 0.0
2017-May-23 22:28N 69°41' E 018°60'0 0.0
2017-May-23 21:58N 69°41' E 018°60'0 0.0
2017-May-23 21:28N 69°41' E 018°60'0 0.0
2017-May-23 20:58N 69°41' E 018°60'0 0.0
2017-May-23 20:28N 69°41' E 018°60'0 0.0
2017-May-23 19:58N 69°41' E 018°60'0 0.0
2017-May-23 19:28N 69°41' E 018°60'0 0.0
2017-May-23 18:58N 69°41' E 018°60'0 0.0
2017-May-23 18:28N 69°41' E 018°60'0 0.0
2017-May-23 17:58N 69°41' E 018°60'0 0.0
2017-May-23 17:28N 69°41' E 018°60'0 0.0
2017-May-23 16:58N 69°41' E 018°60'0 0.0
2017-May-23 16:28N 69°41' E 018°60'0 0.0
2017-May-23 15:58N 69°41' E 018°60'0 0.0
2017-May-23 15:28N 69°41' E 018°60'0 0.0
2017-May-23 14:58N 69°41' E 018°60'0 0.0
2017-May-23 14:28N 69°41' E 018°60'0 0.0
2017-May-23 13:28N 69°41' E 018°60'0 0.0
2017-May-23 12:58N 69°41' E 018°60'0 0.0
2017-May-23 12:28N 69°41' E 018°60'0 0.0
2017-May-23 11:58N 69°41' E 018°60'0 0.0
2017-May-23 11:28N 69°41' E 018°60'0 0.0
2017-May-23 10:58N 69°41' E 018°60'0 0.0
2017-May-23 10:28N 69°41' E 018°60'0 0.0
2017-May-23 09:58N 69°41' E 018°60'0 0.7
2017-May-23 09:30N 69°41' E 019°01'3 5.3
2017-May-23 09:01N 69°43' E 019°03'4 7.9
2017-May-23 08:30N 69°47' E 019°03'611.7
2017-May-23 08:00N 69°52' E 018°52'611.6
2017-May-23 07:30N 69°55' E 018°38'611.0
2017-May-23 07:00N 69°56' E 018°22'510.7
2017-May-23 06:30N 69°57' E 018°07'510.6
2017-May-23 06:00N 69°56' E 017°52'4 7.8
2017-May-23 05:30N 69°55' E 017°41'4 8.9
2017-May-23 05:00N 69°55' E 017°28'1 2.2
2017-May-23 04:30N 69°55' E 017°25'510.0
2017-May-23 04:00N 69°55' E 017°11'510.2
2017-May-23 03:30N 69°55' E 016°55'63 2.8
2017-May-22 04:58N 69°22' E 014°20'4 9.0
2017-May-22 04:30N 69°20' E 014°31'5 9.2
2017-May-22 04:00N 69°18' E 014°42'5 9.9
2017-May-22 03:30N 69°15' E 014°54'5 9.5
2017-May-22 03:00N 69°13' E 015°06'5 9.2
2017-May-22 02:30N 69°12' E 014°53'611.0
2017-May-22 01:59N 69°12' E 014°37'3 5.5
2017-May-22 01:30N 69°13' E 014°29'1 2.8
2017-May-22 01:00N 69°13' E 014°33'1 3.0
2017-May-22 00:31N 69°12' E 014°37'3 6.2
2017-May-22 00:00N 69°12' E 014°28'5 9.8
2017-May-21 23:30N 69°12' E 014°14'  
2017-May-18 04:46N 68°30' E 012°43'2 9.0
2017-May-18 04:30N 68°30' E 012°50'4 8.9
2017-May-18 04:00N 68°30' E 013°02'4 9.0
2017-May-18 03:30N 68°30' E 013°14'4 7.4
2017-May-18 03:00N 68°29' E 013°24'611.4
2017-May-18 02:30N 68°25' E 013°16'610.9
2017-May-18 01:59N 68°20' E 013°07'510.7
2017-May-18 01:30N 68°16' E 012°59'510.7
2017-May-18 01:00N 68°11' E 012°51'510.8
2017-May-18 00:30N 68°07' E 012°44'510.9
2017-May-18 00:00N 68°02' E 012°35'510.9
2017-May-17 23:30N 67°58' E 012°27'510.7
2017-May-17 23:00N 67°53' E 012°19'  

Dump ship's entire track history